createdAt,value
2017-12-17T00:01:59.131Z,2.70
2017-12-17T00:04:26.754Z,2.47
2017-12-17T00:06:54.336Z,3.33
2017-12-17T00:09:21.912Z,2.00
2017-12-17T00:11:49.491Z,2.40
2017-12-17T00:14:17.081Z,3.33
2017-12-17T00:16:44.717Z,2.80
2017-12-17T00:19:12.313Z,2.87
2017-12-17T00:21:39.893Z,2.43
2017-12-17T00:24:07.484Z,2.77
2017-12-17T00:26:35.852Z,3.23
2017-12-17T00:29:03.476Z,2.90
2017-12-17T00:31:31.070Z,2.17
2017-12-17T00:33:58.657Z,2.53
2017-12-17T00:36:27.002Z,2.50
2017-12-17T00:38:54.569Z,2.60
2017-12-17T00:41:22.192Z,2.53
2017-12-17T00:43:49.775Z,3.13
2017-12-17T00:46:17.367Z,2.93
2017-12-17T00:48:45.731Z,3.20
2017-12-17T00:51:13.332Z,4.73
2017-12-17T00:53:40.964Z,3.10
2017-12-17T00:56:08.549Z,2.10
2017-12-17T00:58:36.126Z,2.50
2017-12-17T01:01:03.758Z,1.90
2017-12-17T01:03:31.354Z,2.60
2017-12-17T01:05:58.938Z,2.73
2017-12-17T01:08:26.532Z,2.57
2017-12-17T01:10:54.141Z,2.40
2017-12-17T01:13:22.578Z,2.53
2017-12-17T01:15:50.942Z,2.40
2017-12-17T01:18:18.533Z,2.67
2017-12-17T01:20:46.140Z,3.20
2017-12-17T01:23:13.753Z,2.03
2017-12-17T01:25:41.345Z,3.07
2017-12-17T01:28:09.029Z,2.27
2017-12-17T01:30:36.600Z,2.77
2017-12-17T01:33:04.194Z,2.60
2017-12-17T01:35:32.628Z,2.43
2017-12-17T01:38:00.217Z,2.10
2017-12-17T01:40:27.800Z,2.57
2017-12-17T01:42:56.161Z,2.57
2017-12-17T01:45:23.745Z,2.50
2017-12-17T01:47:52.127Z,2.10
2017-12-17T01:50:19.739Z,2.37
2017-12-17T01:52:47.333Z,2.40
2017-12-17T01:55:15.689Z,2.57
2017-12-17T01:57:43.300Z,2.43
2017-12-17T02:00:10.920Z,2.20
2017-12-17T02:02:39.285Z,1.77
2017-12-17T02:05:06.865Z,3.40
2017-12-17T02:07:34.469Z,2.03
2017-12-17T02:10:02.048Z,2.20
2017-12-17T02:12:29.663Z,2.27
2017-12-17T02:14:58.026Z,1.67
2017-12-17T02:17:25.631Z,1.97
2017-12-17T02:19:53.218Z,2.17
2017-12-17T02:22:20.808Z,1.67
2017-12-17T02:24:48.420Z,2.00
2017-12-17T02:27:16.012Z,2.23
2017-12-17T02:29:43.606Z,2.53
2017-12-17T02:32:11.956Z,1.93
2017-12-17T02:34:39.560Z,2.40
2017-12-17T02:37:07.179Z,4.03
2017-12-17T02:39:34.778Z,1.83
2017-12-17T02:42:03.203Z,2.10
2017-12-17T02:44:30.818Z,1.83
2017-12-17T02:46:58.410Z,2.47
2017-12-17T02:49:26.088Z,1.80
2017-12-17T02:51:53.675Z,2.60
2017-12-17T02:54:22.053Z,2.10
2017-12-17T02:56:49.633Z,2.07
2017-12-17T02:59:17.985Z,1.70
2017-12-17T03:01:45.622Z,1.70
2017-12-17T03:04:13.230Z,2.77
2017-12-17T03:06:40.854Z,1.80
2017-12-17T03:09:08.475Z,2.20
2017-12-17T03:11:37.013Z,1.70
2017-12-17T03:14:04.708Z,2.20
2017-12-17T03:16:32.290Z,1.70
2017-12-17T03:18:59.917Z,2.67
2017-12-17T03:21:28.317Z,2.10
2017-12-17T03:23:56.683Z,1.60
2017-12-17T03:26:25.069Z,1.50
2017-12-17T03:28:52.673Z,1.50
2017-12-17T03:31:20.275Z,2.07
2017-12-17T03:33:48.666Z,1.90
2017-12-17T03:36:17.041Z,1.70
2017-12-17T03:38:44.661Z,1.50
2017-12-17T03:41:12.270Z,2.37
2017-12-17T03:43:39.883Z,1.83
2017-12-17T03:46:07.499Z,1.73
2017-12-17T03:48:35.132Z,2.00
2017-12-17T03:51:02.759Z,1.30
2017-12-17T03:53:30.361Z,1.50
2017-12-17T03:55:57.966Z,2.03
2017-12-17T03:58:25.563Z,1.67
2017-12-17T04:00:53.141Z,2.40
2017-12-17T04:03:20.762Z,1.93
2017-12-17T04:05:48.359Z,2.13
2017-12-17T04:08:15.945Z,2.40
2017-12-17T04:10:44.309Z,1.20
2017-12-17T04:13:12.692Z,1.60
2017-12-17T04:15:40.332Z,1.67
2017-12-17T04:18:07.926Z,1.70
2017-12-17T04:20:35.557Z,4.37
2017-12-17T04:23:03.172Z,1.47
2017-12-17T04:25:30.764Z,2.40
2017-12-17T04:27:58.386Z,2.10
2017-12-17T04:30:25.983Z,1.83
2017-12-17T04:32:53.576Z,1.87
2017-12-17T04:35:21.177Z,1.90
2017-12-17T04:37:48.768Z,1.47
2017-12-17T04:40:16.399Z,1.43
2017-12-17T04:42:44.008Z,1.40
2017-12-17T04:45:11.631Z,1.53
2017-12-17T04:47:39.235Z,2.57
2017-12-17T04:50:06.875Z,1.73
2017-12-17T04:52:34.493Z,1.50
2017-12-17T04:55:02.082Z,1.47
2017-12-17T04:57:29.682Z,1.43
2017-12-17T04:59:57.285Z,1.70
2017-12-17T05:02:24.886Z,1.50
2017-12-17T05:04:52.510Z,1.57
2017-12-17T05:07:20.107Z,1.20
2017-12-17T05:09:47.697Z,1.40
2017-12-17T05:12:15.299Z,1.80
2017-12-17T05:14:42.896Z,1.50
2017-12-17T05:17:10.501Z,1.40
2017-12-17T05:19:38.094Z,1.30
2017-12-17T05:22:05.677Z,1.40
2017-12-17T05:24:33.267Z,1.30
2017-12-17T05:27:00.868Z,1.63
2017-12-17T05:29:28.482Z,1.73
2017-12-17T05:31:56.089Z,1.80
2017-12-17T05:34:23.673Z,2.17
2017-12-17T05:36:51.258Z,1.30
2017-12-17T05:39:18.858Z,1.60
2017-12-17T05:41:46.469Z,1.97
2017-12-17T05:44:14.051Z,1.93
2017-12-17T05:46:41.720Z,1.57
2017-12-17T05:49:10.096Z,1.20
2017-12-17T05:51:38.463Z,1.17
2017-12-17T05:54:06.088Z,1.33
2017-12-17T05:56:33.689Z,2.90
2017-12-17T05:59:01.297Z,1.93
2017-12-17T06:01:28.876Z,1.40
2017-12-17T06:03:56.480Z,1.50
2017-12-17T06:06:24.089Z,2.40
2017-12-17T06:08:51.677Z,1.20
2017-12-17T06:11:19.306Z,1.60
2017-12-17T06:13:46.911Z,1.30
2017-12-17T06:16:14.508Z,1.67
2017-12-17T06:18:42.147Z,1.07
2017-12-17T06:21:11.467Z,2.20
2017-12-17T06:23:39.831Z,2.57
2017-12-17T06:26:07.438Z,1.83
2017-12-17T06:28:35.044Z,1.60
2017-12-17T06:31:02.672Z,1.67
2017-12-17T06:33:30.276Z,1.87
2017-12-17T06:35:58.638Z,1.40
2017-12-17T06:38:26.252Z,1.30
2017-12-17T06:40:53.841Z,1.30
2017-12-17T06:43:21.498Z,1.70
2017-12-17T06:45:49.106Z,1.40
2017-12-17T06:48:17.471Z,1.13
2017-12-17T06:50:45.074Z,1.20
2017-12-17T06:53:12.678Z,1.30
2017-12-17T06:55:40.331Z,1.77
2017-12-17T06:58:07.926Z,1.80
2017-12-17T07:00:36.322Z,1.17
2017-12-17T07:03:03.918Z,1.60
2017-12-17T07:05:31.501Z,1.50
2017-12-17T07:07:59.164Z,1.27
2017-12-17T07:10:26.765Z,1.10
2017-12-17T07:12:54.389Z,1.10
2017-12-17T07:15:21.981Z,1.30
2017-12-17T07:17:50.374Z,2.70
2017-12-17T07:20:18.019Z,2.67
2017-12-17T07:22:46.394Z,1.37
2017-12-17T07:25:14.767Z,1.17
2017-12-17T07:27:42.365Z,2.90
2017-12-17T07:30:10.012Z,1.10
2017-12-17T07:32:38.618Z,1.13
2017-12-17T07:35:06.216Z,1.03
2017-12-17T07:37:34.553Z,1.30
2017-12-17T07:40:02.220Z,1.83
2017-12-17T07:42:29.906Z,1.20
2017-12-17T07:44:57.534Z,1.97
2017-12-17T07:50:16.033Z,1.40
2017-12-17T07:52:43.638Z,1.27
2017-12-17T07:55:11.998Z,1.17
2017-12-17T07:57:39.565Z,1.27
2017-12-17T08:00:07.737Z,1.30
2017-12-17T08:02:35.474Z,1.10
2017-12-17T08:05:03.230Z,1.13
2017-12-17T08:07:30.812Z,1.20
2017-12-17T08:09:59.436Z,1.13
2017-12-17T08:12:27.065Z,1.10
2017-12-17T08:14:54.705Z,3.30
2017-12-17T08:17:22.334Z,1.53
2017-12-17T08:19:49.933Z,2.00
2017-12-17T08:22:17.566Z,2.37
2017-12-17T08:24:45.205Z,1.33
2017-12-17T08:27:30.209Z,1.80
2017-12-17T08:29:57.785Z,3.20
2017-12-17T08:32:25.410Z,1.30
2017-12-17T08:35:04.563Z,5.43
2017-12-17T08:37:32.139Z,1.50
2017-12-17T08:40:00.940Z,1.37
2017-12-17T08:42:28.653Z,2.10
2017-12-17T08:44:56.382Z,1.83
2017-12-17T08:47:24.049Z,1.70
2017-12-17T08:49:51.649Z,1.70
2017-12-17T08:52:19.284Z,3.17
2017-12-17T08:54:46.913Z,4.27
2017-12-17T11:39:17.126Z,3.30
2017-12-17T11:43:37.461Z,2.73
2017-12-17T11:46:05.867Z,2.40
2017-12-17T11:48:35.173Z,1.77
2017-12-17T11:51:04.391Z,2.03
2017-12-17T11:53:33.584Z,4.00
2017-12-17T11:56:02.769Z,2.80
2017-12-17T11:58:31.170Z,3.83
2017-12-17T12:00:59.606Z,3.00
2017-12-17T12:03:27.781Z,1.25
2017-12-17T12:05:54.185Z,2.42
2017-12-17T13:42:52.097Z,7.70
2017-12-17T13:50:33.475Z,7.97
2017-12-17T13:53:01.059Z,7.32
2017-12-17T13:55:29.439Z,8.50
2017-12-17T14:10:15.377Z,4.70
2017-12-17T15:46:48.829Z,4.93
2017-12-17T15:49:16.425Z,5.33
2017-12-17T15:51:45.754Z,7.23
2017-12-17T15:54:13.323Z,5.53
2017-12-17T15:56:40.944Z,5.70
2017-12-17T15:59:09.278Z,4.40
2017-12-17T16:01:36.879Z,5.30
2017-12-17T16:04:05.229Z,13.47
2017-12-17T16:06:32.807Z,6.97
2017-12-17T16:09:00.410Z,5.27
2017-12-17T16:11:27.988Z,11.00
2017-12-17T16:13:56.353Z,4.63
2017-12-17T16:16:23.929Z,8.67
2017-12-17T16:18:51.493Z,7.53
2017-12-17T16:21:19.066Z,11.50
2017-12-17T16:23:46.648Z,11.00
2017-12-17T16:26:15.028Z,10.47
2017-12-17T16:28:42.607Z,12.43
2017-12-17T16:31:10.943Z,13.30
2017-12-17T16:33:38.513Z,8.93
2017-12-17T16:36:06.121Z,13.17
2017-12-17T16:38:33.698Z,11.60
2017-12-17T16:41:01.281Z,11.73
2017-12-17T16:43:28.856Z,11.90
2017-12-17T16:45:57.441Z,11.13
2017-12-17T16:48:25.781Z,10.70
2017-12-17T16:50:53.361Z,9.20
2017-12-17T16:53:21.993Z,8.20
2017-12-17T16:55:49.561Z,6.97
2017-12-17T16:58:17.903Z,8.37
2017-12-17T17:00:45.470Z,12.90
2017-12-17T17:03:13.032Z,7.33
2017-12-17T17:05:40.633Z,11.33
2017-12-17T17:08:08.969Z,8.87
2017-12-17T17:10:36.572Z,12.87
2017-12-17T17:13:04.901Z,7.60
2017-12-17T17:15:32.468Z,6.67
2017-12-17T17:20:53.995Z,8.00
2017-12-17T17:23:21.576Z,6.33
2017-12-17T17:25:49.171Z,4.50
2017-12-17T17:28:17.501Z,8.30
2017-12-17T17:30:45.076Z,10.10
2017-12-17T17:33:12.653Z,5.73
2017-12-17T17:35:40.984Z,8.37
2017-12-17T17:38:08.577Z,4.83
2017-12-17T17:40:36.141Z,6.47
2017-12-17T17:43:03.712Z,8.53
2017-12-17T17:45:32.049Z,6.67
2017-12-17T17:47:59.623Z,6.03
2017-12-17T17:50:27.218Z,4.87
2017-12-17T17:52:55.576Z,4.77
2017-12-17T17:55:23.178Z,7.40
2017-12-17T17:57:50.746Z,7.33
2017-12-17T18:00:18.314Z,5.00
2017-12-17T18:02:45.905Z,5.93
2017-12-17T18:05:13.467Z,6.23
2017-12-17T18:07:41.035Z,8.80
2017-12-17T18:10:08.608Z,7.30
2017-12-17T18:12:36.182Z,4.17
2017-12-17T18:15:04.560Z,6.70
2017-12-17T18:17:32.895Z,5.93
2017-12-17T18:20:00.489Z,6.70
2017-12-17T18:22:28.907Z,4.90
2017-12-17T18:24:56.475Z,6.17
2017-12-17T18:27:24.155Z,6.93
2017-12-17T18:29:51.726Z,4.47
2017-12-17T18:32:20.550Z,4.47
2017-12-17T18:34:48.290Z,6.70
2017-12-17T18:37:15.873Z,6.13
2017-12-17T18:39:44.205Z,5.83
2017-12-17T18:42:11.769Z,3.60
2017-12-17T18:44:39.345Z,6.33
2017-12-17T18:47:06.921Z,4.97
2017-12-17T18:49:34.497Z,4.63
2017-12-17T18:52:02.843Z,5.00
2017-12-17T18:54:30.424Z,4.30
2017-12-17T18:56:58.778Z,2.53
2017-12-17T18:59:26.417Z,5.73
2017-12-17T19:01:54.057Z,6.10
2017-12-17T19:04:21.646Z,5.23
2017-12-17T19:06:49.267Z,5.60
2017-12-17T19:09:18.630Z,4.53
2017-12-17T19:11:46.234Z,3.60
2017-12-17T19:14:14.648Z,7.00
2017-12-17T19:16:42.232Z,6.00
2017-12-17T19:19:09.893Z,4.53
2017-12-17T19:21:37.457Z,4.63
2017-12-17T19:24:05.068Z,5.13
2017-12-17T19:26:32.656Z,2.57
2017-12-17T19:29:00.270Z,6.70
2017-12-17T19:31:28.615Z,4.10
2017-12-17T19:33:56.209Z,3.80
2017-12-17T19:36:24.585Z,3.60
2017-12-17T19:38:52.978Z,3.30
2017-12-17T19:41:24.486Z,3.87
2017-12-17T19:43:52.865Z,3.67
2017-12-17T19:46:20.456Z,3.70
2017-12-17T19:48:48.805Z,5.03
2017-12-17T19:51:16.393Z,3.80
2017-12-17T19:53:43.975Z,3.90
2017-12-17T19:56:11.552Z,5.70
2017-12-17T19:58:39.137Z,5.13
2017-12-17T20:01:06.712Z,3.93
2017-12-17T20:03:34.315Z,4.47
2017-12-17T20:06:02.656Z,5.83
2017-12-17T20:08:30.235Z,6.37
2017-12-17T20:10:58.586Z,4.90
2017-12-17T20:13:26.170Z,12.03
2017-12-17T20:15:53.747Z,4.00
2017-12-17T20:18:23.112Z,2.37
2017-12-17T20:20:50.696Z,2.93
2017-12-17T20:23:18.280Z,3.90
2017-12-17T20:25:46.661Z,3.40
2017-12-17T20:28:14.310Z,4.27
2017-12-17T20:30:42.661Z,3.90
2017-12-17T20:33:15.950Z,4.63
2017-12-17T20:35:53.944Z,6.53
2017-12-17T20:38:22.104Z,7.37
2017-12-17T20:41:03.761Z,3.40
2017-12-17T20:43:32.107Z,2.90
2017-12-17T20:45:59.686Z,2.23
2017-12-17T20:48:28.033Z,3.57
2017-12-17T20:50:55.648Z,3.63
2017-12-17T20:53:23.240Z,2.53
2017-12-17T20:55:50.835Z,2.40
2017-12-17T20:58:18.408Z,3.30
2017-12-17T21:00:46.809Z,5.10
2017-12-17T21:03:15.146Z,2.60
2017-12-17T21:05:42.859Z,3.03
2017-12-17T21:08:10.429Z,2.47
2017-12-17T21:10:38.946Z,5.50
2017-12-17T21:13:06.561Z,3.00
2017-12-17T21:15:34.139Z,3.77
2017-12-17T21:18:01.708Z,2.20
2017-12-17T21:20:30.740Z,2.37
2017-12-17T21:22:58.315Z,2.80
2017-12-17T21:25:26.689Z,1.90
2017-12-17T21:27:55.038Z,3.50
2017-12-17T21:30:22.781Z,4.37
2017-12-17T21:32:50.344Z,2.30
2017-12-17T21:35:17.937Z,3.67
2017-12-17T21:37:45.512Z,2.40
2017-12-17T21:40:13.865Z,2.70
2017-12-17T21:42:41.432Z,2.43
2017-12-17T21:45:10.009Z,2.30
2017-12-17T21:47:37.613Z,2.67
2017-12-17T21:50:05.955Z,1.70
2017-12-17T21:52:33.530Z,2.17
2017-12-17T21:55:01.882Z,2.13
2017-12-17T21:57:29.481Z,3.13
2017-12-17T21:59:57.833Z,1.60
2017-12-17T22:02:25.413Z,1.60
2017-12-17T22:04:53.801Z,2.17
2017-12-17T22:07:22.146Z,2.40
2017-12-17T22:09:51.384Z,1.90
2017-12-17T22:12:18.961Z,2.40
2017-12-17T22:14:46.571Z,2.13
2017-12-17T22:17:14.188Z,1.57
2017-12-17T22:19:41.776Z,1.50
2017-12-17T22:22:09.365Z,2.50
2017-12-17T22:24:36.951Z,2.50
2017-12-17T22:27:05.315Z,1.60
2017-12-17T22:29:33.701Z,1.73
2017-12-17T22:32:02.088Z,2.20
2017-12-17T22:34:30.448Z,1.60
2017-12-17T22:36:58.038Z,2.60
2017-12-17T22:39:25.622Z,2.30
2017-12-17T22:41:53.230Z,1.37
2017-12-17T22:44:20.835Z,1.70
2017-12-17T22:46:48.428Z,1.70
2017-12-17T22:49:16.045Z,1.40
2017-12-17T22:51:43.636Z,1.83
2017-12-17T22:54:11.318Z,1.77
2017-12-17T22:56:38.913Z,2.30
2017-12-17T22:59:07.308Z,2.33
2017-12-17T23:01:34.916Z,2.10
2017-12-17T23:04:02.511Z,1.97
2017-12-17T23:06:30.924Z,1.77
2017-12-17T23:08:58.534Z,2.47
2017-12-17T23:11:26.117Z,1.87
2017-12-17T23:13:54.494Z,1.73
2017-12-17T23:16:22.841Z,1.53
2017-12-17T23:18:50.463Z,2.60
2017-12-17T23:21:18.064Z,3.60
2017-12-17T23:23:45.639Z,2.23
2017-12-17T23:26:13.219Z,1.97
2017-12-17T23:28:41.570Z,1.43
2017-12-17T23:31:09.209Z,1.90
2017-12-17T23:33:36.826Z,1.70
2017-12-17T23:36:05.178Z,2.50
2017-12-17T23:38:32.769Z,2.07
2017-12-17T23:41:01.121Z,2.00
2017-12-17T23:43:28.743Z,1.60
2017-12-17T23:45:56.336Z,1.67
2017-12-17T23:48:23.934Z,2.00
2017-12-17T23:50:52.313Z,1.53
2017-12-17T23:53:20.674Z,2.40
2017-12-17T23:55:48.293Z,1.50
2017-12-17T23:58:15.904Z,1.47
